Time;durP1;ratioP1;P1;durP2;ratioP2;P2;SDS_P1;SDS_P2;PMS_P1;PMS_P2;Temp;Humidity;BMP_temperature;BMP_pressure;BME280_temperature;BME280_humidity;BME280_pressure;Samples;Min_cycle;Max_cycle;Signal;HPM_P1;HPM_P2
2024/01/02 00:00:30;;;;;;;52.88;32.88;;;;;;;;;;5028843;28;20028;-89
2024/01/02 00:02:57;;;;;;;44.22;30.13;;;;;;;;;;5012254;28;20415;-88
2024/01/02 00:05:23;;;;;;;62.35;39.45;;;;;;;;;;5021302;28;20025;-89
2024/01/02 00:07:48;;;;;;;52.22;30.80;;;;;;;;;;5029348;28;20083;-89
2024/01/02 00:10:14;;;;;;;48.05;31.35;;;;;;;;;;5012021;28;20025;-88
2024/01/02 00:12:39;;;;;;;80.25;49.58;;;;;;;;;;5029614;28;20029;-89
2024/01/02 00:15:05;;;;;;;57.40;35.88;;;;;;;;;;5029940;28;20426;-90
2024/01/02 00:17:30;;;;;;;52.63;33.42;;;;;;;;;;5028631;28;20374;-89
2024/01/02 00:19:57;;;;;;;54.45;37.15;;;;;;;;;;5011958;28;20029;-89
2024/01/02 00:22:22;;;;;;;47.45;31.15;;;;;;;;;;5011892;28;20013;-89
2024/01/02 00:24:47;;;;;;;66.10;44.15;;;;;;;;;;5029592;28;20387;-89
2024/01/02 00:27:13;;;;;;;58.38;40.30;;;;;;;;;;5026743;28;20029;-89
2024/01/02 00:29:38;;;;;;;65.13;41.78;;;;;;;;;;5029240;28;20049;-89
2024/01/02 00:32:03;;;;;;;60.78;41.05;;;;;;;;;;5030047;28;20032;-88
2024/01/02 00:34:29;;;;;;;67.53;41.30;;;;;;;;;;5011589;28;20071;-88
2024/01/02 00:36:54;;;;;;;56.88;38.60;;;;;;;;;;5018806;28;20511;-89
2024/01/02 00:39:19;;;;;;;65.65;45.70;;;;;;;;;;5028834;28;20025;-89
2024/01/02 00:41:45;;;;;;;48.92;33.75;;;;;;;;;;5015283;28;20028;-89
2024/01/02 00:44:10;;;;;;;43.00;29.63;;;;;;;;;;5011368;28;20360;-89
2024/01/02 00:46:35;;;;;;;48.72;33.33;;;;;;;;;;5008388;28;20216;-88
2024/01/02 00:49:01;;;;;;;54.72;37.03;;;;;;;;;;4991493;28;20046;-89
2024/01/02 00:51:26;;;;;;;60.63;40.20;;;;;;;;;;4994249;28;20049;-89
2024/01/02 00:53:51;;;;;;;74.95;52.03;;;;;;;;;;5011070;28;20048;-89
2024/01/02 00:56:17;;;;;;;111.15;75.18;;;;;;;;;;5028928;28;20379;-89
2024/01/02 00:58:42;;;;;;;127.68;78.30;;;;;;;;;;5028819;28;20022;-89
2024/01/02 01:01:07;;;;;;;124.90;74.30;;;;;;;;;;5011300;28;20064;-89
2024/01/02 01:03:33;;;;;;;102.22;62.45;;;;;;;;;;5028813;28;20375;-89
2024/01/02 01:05:58;;;;;;;119.40;73.72;;;;;;;;;;5011202;28;20026;-89
2024/01/02 01:08:23;;;;;;;109.05;64.05;;;;;;;;;;5018645;28;20428;-89
2024/01/02 01:10:49;;;;;;;96.80;59.53;;;;;;;;;;5027441;28;20036;-89
2024/01/02 01:13:15;;;;;;;168.18;98.47;;;;;;;;;;5027831;28;20021;-89
2024/01/02 01:15:40;;;;;;;207.98;113.00;;;;;;;;;;5011308;28;20021;-89
2024/01/02 01:18:05;;;;;;;110.82;68.45;;;;;;;;;;5007500;28;20079;-89
2024/01/02 01:20:31;;;;;;;110.68;69.15;;;;;;;;;;5008895;28;20014;-89
2024/01/02 01:22:56;;;;;;;221.23;118.45;;;;;;;;;;5011301;28;20041;-89
2024/01/02 01:25:21;;;;;;;167.52;88.20;;;;;;;;;;5028420;28;20043;-89
2024/01/02 01:27:47;;;;;;;122.53;59.78;;;;;;;;;;5010616;28;20017;-89
2024/01/02 01:30:12;;;;;;;101.75;55.97;;;;;;;;;;5010664;28;20023;-89
2024/01/02 01:32:37;;;;;;;86.28;45.45;;;;;;;;;;5028382;28;20112;-89
2024/01/02 01:35:03;;;;;;;100.85;50.92;;;;;;;;;;5010279;28;20464;-89
2024/01/02 01:37:29;;;;;;;76.70;42.92;;;;;;;;;;5028336;28;20049;-87
2024/01/02 01:39:56;;;;;;;68.43;38.20;;;;;;;;;;5021008;28;20028;-88
2024/01/02 01:42:22;;;;;;;65.85;35.67;;;;;;;;;;5027311;28;20398;-89
2024/01/02 01:44:47;;;;;;;34.00;21.27;;;;;;;;;;5019156;28;20108;-88
2024/01/02 01:47:12;;;;;;;114.35;59.92;;;;;;;;;;5028458;28;20049;-88
2024/01/02 01:49:38;;;;;;;87.55;45.80;;;;;;;;;;5028047;28;20028;-88
2024/01/02 01:52:03;;;;;;;60.35;33.50;;;;;;;;;;5010482;28;20022;-88
2024/01/02 01:54:29;;;;;;;34.60;22.00;;;;;;;;;;5027964;28;20067;-88
2024/01/02 01:56:54;;;;;;;46.65;33.83;;;;;;;;;;5028567;28;20605;-88
2024/01/02 01:59:19;;;;;;;40.40;30.77;;;;;;;;;;5010169;28;20026;-88
2024/01/02 02:01:46;;;;;;;36.97;24.50;;;;;;;;;;5009823;28;20022;-88
2024/01/02 02:04:11;;;;;;;32.08;21.45;;;;;;;;;;5010275;28;20022;-88
2024/01/02 02:06:37;;;;;;;39.83;25.83;;;;;;;;;;5027539;28;20042;-88
2024/01/02 02:09:02;;;;;;;32.00;21.10;;;;;;;;;;5009560;28;20021;-88
2024/01/02 02:11:29;;;;;;;40.28;25.35;;;;;;;;;;5009923;28;20035;-87
2024/01/02 02:13:54;;;;;;;42.50;28.08;;;;;;;;;;5027767;28;20028;-88
2024/01/02 02:16:20;;;;;;;48.03;32.50;;;;;;;;;;5009899;28;20030;-88
2024/01/02 02:18:45;;;;;;;41.92;28.10;;;;;;;;;;5009937;28;20027;-88
2024/01/02 02:21:10;;;;;;;35.78;24.45;;;;;;;;;;5028264;28;20024;-87
2024/01/02 02:23:35;;;;;;;45.40;27.73;;;;;;;;;;5009711;28;20023;-88
2024/01/02 02:26:01;;;;;;;39.00;28.45;;;;;;;;;;5027965;28;20022;-88
2024/01/02 02:28:26;;;;;;;50.17;34.28;;;;;;;;;;5010418;28;20064;-87
2024/01/02 02:30:51;;;;;;;52.70;37.15;;;;;;;;;;5014897;28;20021;-87
2024/01/02 02:33:17;;;;;;;102.38;48.97;;;;;;;;;;5028008;28;20033;-88
2024/01/02 02:35:42;;;;;;;109.35;50.95;;;;;;;;;;5009793;28;20112;-88
2024/01/02 02:38:07;;;;;;;104.85;55.30;;;;;;;;;;5009779;28;20046;-86
2024/01/02 02:40:33;;;;;;;104.85;50.10;;;;;;;;;;5027337;28;20048;-87
2024/01/02 02:42:58;;;;;;;46.55;28.60;;;;;;;;;;5025309;28;20481;-88
2024/01/02 02:45:23;;;;;;;35.28;23.92;;;;;;;;;;5027828;28;20278;-87
2024/01/02 02:47:49;;;;;;;49.67;30.13;;;;;;;;;;5027720;28;20091;-87
2024/01/02 02:50:14;;;;;;;53.17;33.55;;;;;;;;;;5009546;28;20167;-88
2024/01/02 02:52:39;;;;;;;42.38;27.42;;;;;;;;;;5018850;28;20037;-88
2024/01/02 02:55:05;;;;;;;36.63;24.77;;;;;;;;;;5010534;28;20499;-88
2024/01/02 02:57:30;;;;;;;38.30;26.50;;;;;;;;;;5018919;28;20025;-87
2024/01/02 02:59:55;;;;;;;38.15;26.05;;;;;;;;;;5010034;28;20029;-88
2024/01/02 03:02:22;;;;;;;42.63;28.73;;;;;;;;;;5027776;28;20479;-87
2024/01/02 03:04:47;;;;;;;54.65;30.25;;;;;;;;;;5008983;28;20026;-86
2024/01/02 03:07:14;;;;;;;39.90;22.88;;;;;;;;;;5027872;28;20116;-86
2024/01/02 03:09:43;;;;;;;82.63;36.65;;;;;;;;;;5009851;28;20029;-86
2024/01/02 03:12:09;;;;;;;35.08;23.80;;;;;;;;;;5010639;28;20033;-86
2024/01/02 03:14:35;;;;;;;33.10;23.50;;;;;;;;;;5027858;28;20373;-86
2024/01/02 03:17:00;;;;;;;30.20;20.98;;;;;;;;;;5009397;28;20080;-87
2024/01/02 03:19:25;;;;;;;31.83;20.52;;;;;;;;;;5023673;28;20242;-86
2024/01/02 03:21:51;;;;;;;32.58;22.50;;;;;;;;;;5012716;28;20028;-86
2024/01/02 03:24:16;;;;;;;138.18;45.80;;;;;;;;;;5009861;28;20452;-86
2024/01/02 03:26:41;;;;;;;56.85;32.17;;;;;;;;;;4993581;28;20735;-86
2024/01/02 03:29:07;;;;;;;35.03;22.77;;;;;;;;;;5020661;28;20530;-87
2024/01/02 03:31:32;;;;;;;28.40;20.75;;;;;;;;;;5029441;28;20025;-87
2024/01/02 03:33:57;;;;;;;23.77;17.55;;;;;;;;;;5009678;28;20400;-87
2024/01/02 03:36:23;;;;;;;22.83;16.40;;;;;;;;;;5029230;28;20126;-87
2024/01/02 03:38:49;;;;;;;30.25;21.23;;;;;;;;;;5012677;28;20068;-87
2024/01/02 03:41:15;;;;;;;25.73;18.70;;;;;;;;;;5030638;28;20087;-87
2024/01/02 03:43:40;;;;;;;24.48;17.60;;;;;;;;;;5013275;28;20477;-87
2024/01/02 03:46:06;;;;;;;19.90;14.88;;;;;;;;;;5031014;28;20033;-87
2024/01/02 03:48:31;;;;;;;24.45;16.40;;;;;;;;;;5031032;28;20024;-86
2024/01/02 03:50:57;;;;;;;26.45;17.30;;;;;;;;;;5026780;28;20060;-87
2024/01/02 03:53:22;;;;;;;28.13;19.85;;;;;;;;;;5012698;28;20364;-87
2024/01/02 03:55:47;;;;;;;40.85;27.48;;;;;;;;;;5018505;28;20017;-87
2024/01/02 03:58:13;;;;;;;35.63;25.60;;;;;;;;;;5012676;28;20395;-86
2024/01/02 04:00:39;;;;;;;39.08;26.63;;;;;;;;;;5000505;28;20030;-87
2024/01/02 04:03:05;;;;;;;32.85;23.55;;;;;;;;;;4991458;28;20076;-87
2024/01/02 04:05:30;;;;;;;29.00;20.77;;;;;;;;;;4983532;28;20040;-87
2024/01/02 04:07:55;;;;;;;28.55;22.13;;;;;;;;;;5007693;28;20022;-86
2024/01/02 04:10:21;;;;;;;42.17;31.27;;;;;;;;;;4978833;28;20593;-86
2024/01/02 04:12:46;;;;;;;44.97;31.38;;;;;;;;;;4991366;28;20072;-86
2024/01/02 04:15:12;;;;;;;31.75;23.10;;;;;;;;;;5003370;28;20389;-86
2024/01/02 04:17:37;;;;;;;161.63;80.95;;;;;;;;;;4970638;28;20556;-86
2024/01/02 04:20:02;;;;;;;39.58;26.42;;;;;;;;;;4974332;28;20081;-86
2024/01/02 04:22:28;;;;;;;49.75;32.67;;;;;;;;;;4990995;28;20040;-87
2024/01/02 04:24:53;;;;;;;57.63;34.72;;;;;;;;;;4990374;28;20472;-86
2024/01/02 04:27:18;;;;;;;54.92;32.85;;;;;;;;;;4973862;28;20038;-86
2024/01/02 04:29:43;;;;;;;55.80;35.05;;;;;;;;;;4987499;28;20022;-86
2024/01/02 04:32:09;;;;;;;45.42;27.73;;;;;;;;;;4998621;28;20038;-87
2024/01/02 04:34:34;;;;;;;74.32;39.10;;;;;;;;;;5012214;28;20491;-87
2024/01/02 04:36:59;;;;;;;40.85;27.33;;;;;;;;;;5018043;28;20183;-87
2024/01/02 04:39:25;;;;;;;44.97;28.40;;;;;;;;;;5029542;28;20021;-86
2024/01/02 04:41:52;;;;;;;41.10;25.67;;;;;;;;;;5025002;28;20108;-86
2024/01/02 04:44:17;;;;;;;40.53;24.20;;;;;;;;;;5011309;28;20014;-86
2024/01/02 04:46:42;;;;;;;68.28;36.90;;;;;;;;;;5029211;28;20029;-86
2024/01/02 04:49:08;;;;;;;120.50;60.97;;;;;;;;;;5028855;28;20029;-87
2024/01/02 04:51:34;;;;;;;67.95;39.40;;;;;;;;;;5028940;28;20021;-86
2024/01/02 04:53:59;;;;;;;61.50;37.50;;;;;;;;;;5011137;28;20029;-87
2024/01/02 04:56:24;;;;;;;55.58;33.97;;;;;;;;;;5029143;28;20029;-86
2024/01/02 04:58:50;;;;;;;42.60;26.08;;;;;;;;;;5026027;28;20029;-88
2024/01/02 05:01:15;;;;;;;28.35;21.00;;;;;;;;;;5011035;28;20017;-86
2024/01/02 05:03:41;;;;;;;31.10;22.52;;;;;;;;;;5008000;28;20021;-86
2024/01/02 05:06:06;;;;;;;39.72;26.42;;;;;;;;;;5008036;28;20018;-86
2024/01/02 05:08:31;;;;;;;32.22;22.60;;;;;;;;;;5021380;28;20029;-87
2024/01/02 05:10:57;;;;;;;74.22;50.03;;;;;;;;;;5010520;28;20033;-87
2024/01/02 05:13:23;;;;;;;92.65;48.70;;;;;;;;;;5028837;28;20498;-86
2024/01/02 05:15:48;;;;;;;38.40;24.55;;;;;;;;;;5028675;28;20048;-87
2024/01/02 05:18:14;;;;;;;182.25;60.67;;;;;;;;;;5010966;28;20123;-86
2024/01/02 05:20:39;;;;;;;71.40;39.00;;;;;;;;;;5010483;28;20032;-87
2024/01/02 05:23:05;;;;;;;127.13;57.83;;;;;;;;;;5011289;28;20030;-86
2024/01/02 05:25:31;;;;;;;66.97;35.25;;;;;;;;;;5028421;28;20021;-87
2024/01/02 05:27:56;;;;;;;23.48;15.98;;;;;;;;;;5028586;28;20369;-87
2024/01/02 05:30:22;;;;;;;39.65;27.25;;;;;;;;;;5028635;28;20021;-87
2024/01/02 05:32:47;;;;;;;35.20;25.85;;;;;;;;;;5027867;28;20368;-86
2024/01/02 05:35:12;;;;;;;38.42;25.63;;;;;;;;;;5024743;28;20064;-87
2024/01/02 05:37:37;;;;;;;39.72;25.65;;;;;;;;;;5010341;28;20073;-87
2024/01/02 05:40:03;;;;;;;37.50;22.80;;;;;;;;;;5010394;28;20048;-87
2024/01/02 05:42:28;;;;;;;41.72;25.52;;;;;;;;;;5009025;28;20025;-87
2024/01/02 05:44:54;;;;;;;34.25;21.92;;;;;;;;;;5027778;28;20075;-87
2024/01/02 05:47:19;;;;;;;32.15;18.00;;;;;;;;;;5010169;28;20025;-87
2024/01/02 05:49:44;;;;;;;21.92;14.82;;;;;;;;;;5010611;28;20029;-87
2024/01/02 05:52:10;;;;;;;30.27;17.65;;;;;;;;;;5027356;28;20021;-87
2024/01/02 05:54:35;;;;;;;22.35;14.52;;;;;;;;;;5012412;28;20091;-87
2024/01/02 05:57:00;;;;;;;66.63;34.40;;;;;;;;;;5009255;28;20483;-87
2024/01/02 05:59:25;;;;;;;43.08;23.88;;;;;;;;;;5008695;28;20104;-87
2024/01/02 06:01:51;;;;;;;31.67;18.83;;;;;;;;;;5009053;28;20112;-87
2024/01/02 06:04:16;;;;;;;26.75;17.95;;;;;;;;;;5008967;28;20441;-86
2024/01/02 06:06:41;;;;;;;27.42;16.05;;;;;;;;;;4998121;28;20033;-86
2024/01/02 06:09:07;;;;;;;21.73;15.23;;;;;;;;;;5008009;28;20029;-87
2024/01/02 06:11:32;;;;;;;18.90;13.40;;;;;;;;;;5022615;28;20024;-87
2024/01/02 06:13:57;;;;;;;26.88;15.35;;;;;;;;;;5010408;28;20079;-86
2024/01/02 06:16:22;;;;;;;22.35;13.20;;;;;;;;;;5009906;28;20033;-86
2024/01/02 06:18:48;;;;;;;15.55;9.80;;;;;;;;;;5009598;28;20030;-87
2024/01/02 06:21:13;;;;;;;12.10;8.18;;;;;;;;;;5027716;28;20352;-86
2024/01/02 06:23:38;;;;;;;13.68;9.20;;;;;;;;;;5027468;28;20021;-86
2024/01/02 06:26:04;;;;;;;12.95;9.30;;;;;;;;;;5009788;28;20063;-87
2024/01/02 06:28:29;;;;;;;13.52;9.40;;;;;;;;;;5026619;28;20112;-87
2024/01/02 06:30:55;;;;;;;11.50;8.73;;;;;;;;;;4994682;28;20484;-87
2024/01/02 06:33:20;;;;;;;10.68;7.53;;;;;;;;;;5009599;28;20032;-87
2024/01/02 06:35:45;;;;;;;9.10;6.45;;;;;;;;;;5027559;28;20031;-86
2024/01/02 06:38:11;;;;;;;7.10;4.60;;;;;;;;;;5025835;28;20195;-86
2024/01/02 06:40:36;;;;;;;8.00;5.32;;;;;;;;;;5026293;28;20101;-87
2024/01/02 06:43:02;;;;;;;23.63;12.38;;;;;;;;;;5009178;28;20018;-87
2024/01/02 06:45:27;;;;;;;16.55;10.38;;;;;;;;;;5027321;28;20285;-86
2024/01/02 06:47:53;;;;;;;13.68;9.30;;;;;;;;;;5027329;28;20029;-87
2024/01/02 06:50:18;;;;;;;17.25;10.10;;;;;;;;;;5026398;28;20018;-87
2024/01/02 06:52:43;;;;;;;17.95;11.52;;;;;;;;;;5026242;28;20080;-87
2024/01/02 06:55:09;;;;;;;28.08;17.38;;;;;;;;;;5029350;28;20040;-87
2024/01/02 06:57:34;;;;;;;32.28;18.83;;;;;;;;;;5018969;28;20487;-87
2024/01/02 06:59:59;;;;;;;113.60;51.03;;;;;;;;;;5031700;28;20017;-86
2024/01/02 07:02:25;;;;;;;323.17;120.40;;;;;;;;;;5023919;28;20048;-87
2024/01/02 07:04:51;;;;;;;250.93;116.05;;;;;;;;;;5013171;28;20029;-87
2024/01/02 07:07:16;;;;;;;445.95;177.63;;;;;;;;;;5013351;28;20506;-87
2024/01/02 07:09:43;;;;;;;274.67;97.22;;;;;;;;;;5031106;28;20029;-87
2024/01/02 07:12:08;;;;;;;329.10;162.82;;;;;;;;;;5030311;28;20488;-87
2024/01/02 07:14:37;;;;;;;192.85;104.70;;;;;;;;;;5030807;28;20025;-87
2024/01/02 07:17:02;;;;;;;107.07;57.20;;;;;;;;;;4989001;28;20045;-87
2024/01/02 07:19:28;;;;;;;124.82;68.65;;;;;;;;;;4992053;28;20037;-87
2024/01/02 07:21:53;;;;;;;89.07;52.15;;;;;;;;;;5008491;28;20100;-87
2024/01/02 07:24:18;;;;;;;179.05;101.22;;;;;;;;;;4988357;28;20026;-87
2024/01/02 07:26:43;;;;;;;30.77;19.95;;;;;;;;;;4972421;28;20035;-87
2024/01/02 07:29:09;;;;;;;63.38;40.47;;;;;;;;;;4974187;28;20045;-88
2024/01/02 07:31:35;;;;;;;32.05;19.55;;;;;;;;;;4971791;28;20037;-87
2024/01/02 07:34:01;;;;;;;27.13;16.67;;;;;;;;;;4972623;28;20022;-87
2024/01/02 07:36:26;;;;;;;18.42;12.35;;;;;;;;;;4988528;28;20538;-86
2024/01/02 07:38:51;;;;;;;76.95;53.33;;;;;;;;;;4994715;28;20036;-88
2024/01/02 07:41:18;;;;;;;38.45;26.40;;;;;;;;;;4952692;28;20580;-87
2024/01/02 07:43:44;;;;;;;179.57;101.88;;;;;;;;;;4991896;28;20113;-88
2024/01/02 07:46:09;;;;;;;73.20;44.90;;;;;;;;;;4991763;28;20468;-87
2024/01/02 07:48:34;;;;;;;65.63;43.13;;;;;;;;;;5023328;28;20072;-87
2024/01/02 07:50:59;;;;;;;67.47;45.28;;;;;;;;;;5012648;28;20033;-87
2024/01/02 07:53:25;;;;;;;29.67;21.83;;;;;;;;;;5012424;28;20108;-87
2024/01/02 07:55:50;;;;;;;68.00;52.33;;;;;;;;;;5030622;28;20383;-87
2024/01/02 07:58:15;;;;;;;35.25;23.42;;;;;;;;;;5010798;28;20095;-87
2024/01/02 08:00:41;;;;;;;19.83;12.93;;;;;;;;;;5030489;28;20108;-87
2024/01/02 08:03:06;;;;;;;52.25;33.47;;;;;;;;;;5012603;28;20027;-87
2024/01/02 08:05:31;;;;;;;38.80;25.17;;;;;;;;;;5022929;28;20048;-87
2024/01/02 08:07:57;;;;;;;58.22;34.70;;;;;;;;;;5011918;28;20024;-87
2024/01/02 08:10:22;;;;;;;79.38;42.63;;;;;;;;;;5009319;28;20044;-87
2024/01/02 08:12:47;;;;;;;47.33;29.42;;;;;;;;;;4992448;28;20017;-88
2024/01/02 08:15:12;;;;;;;29.55;19.52;;;;;;;;;;5001702;28;20458;-88
2024/01/02 08:17:38;;;;;;;25.27;15.95;;;;;;;;;;5017780;28;20076;-87
2024/01/02 08:20:04;;;;;;;84.53;32.17;;;;;;;;;;5008766;28;20021;-87
2024/01/02 08:22:29;;;;;;;47.33;28.67;;;;;;;;;;4992786;28;20230;-86
2024/01/02 08:24:54;;;;;;;27.55;17.92;;;;;;;;;;4997199;28;20022;-87
2024/01/02 08:27:20;;;;;;;19.10;14.60;;;;;;;;;;5030326;28;20028;-87
2024/01/02 08:29:45;;;;;;;22.38;18.38;;;;;;;;;;5029260;28;20025;-87
2024/01/02 08:32:11;;;;;;;52.88;31.38;;;;;;;;;;5011878;28;20518;-88
2024/01/02 08:34:36;;;;;;;26.40;20.80;;;;;;;;;;5011918;28;20436;-87
2024/01/02 08:37:01;;;;;;;16.20;11.75;;;;;;;;;;5025439;28;20045;-87
2024/01/02 08:39:27;;;;;;;71.03;42.30;;;;;;;;;;5028447;28;20114;-87
2024/01/02 08:41:52;;;;;;;57.55;37.03;;;;;;;;;;5029299;28;20029;-87
2024/01/02 08:44:17;;;;;;;18.60;11.68;;;;;;;;;;5011455;28;20049;-87
2024/01/02 08:46:43;;;;;;;99.55;60.33;;;;;;;;;;5029729;28;20116;-88
2024/01/02 08:49:08;;;;;;;59.25;41.30;;;;;;;;;;5011752;28;20026;-87
2024/01/02 08:51:34;;;;;;;42.97;29.60;;;;;;;;;;5029932;28;20439;-87
2024/01/02 08:53:59;;;;;;;26.60;19.45;;;;;;;;;;5030112;28;20041;-88
2024/01/02 08:56:24;;;;;;;41.55;31.27;;;;;;;;;;5012669;28;20044;-88
2024/01/02 08:58:50;;;;;;;46.42;32.30;;;;;;;;;;5013010;28;20033;-87
2024/01/02 09:01:17;;;;;;;37.10;28.38;;;;;;;;;;5011988;28;20017;-87
2024/01/02 09:03:43;;;;;;;25.98;18.85;;;;;;;;;;5012068;28;20482;-87
2024/01/02 09:06:08;;;;;;;37.70;26.55;;;;;;;;;;5011190;28;20049;-88
2024/01/02 09:08:33;;;;;;;23.77;18.73;;;;;;;;;;5011120;28;20022;-87
2024/01/02 09:10:59;;;;;;;17.65;12.52;;;;;;;;;;5006083;28;20112;-85
2024/01/02 09:13:24;;;;;;;7.97;6.72;;;;;;;;;;5020143;28;20500;-86
2024/01/02 09:15:50;;;;;;;22.35;15.77;;;;;;;;;;5023745;28;20029;-86
2024/01/02 09:18:15;;;;;;;25.52;19.08;;;;;;;;;;5004943;28;20026;-87
2024/01/02 09:20:40;;;;;;;21.98;17.60;;;;;;;;;;5003588;28;20018;-86
2024/01/02 09:23:06;;;;;;;36.70;24.92;;;;;;;;;;4997756;28;20021;-85
2024/01/02 09:25:33;;;;;;;35.67;25.80;;;;;;;;;;4994180;28;20026;-85
2024/01/02 09:27:59;;;;;;;9.05;6.47;;;;;;;;;;5029437;28;20041;-85
2024/01/02 09:30:25;;;;;;;25.83;18.63;;;;;;;;;;5012225;28;20021;-86
2024/01/02 09:32:50;;;;;;;31.25;22.90;;;;;;;;;;5028800;28;20475;-86
2024/01/02 09:35:17;;;;;;;38.13;30.10;;;;;;;;;;5010732;28;20029;-86
2024/01/02 09:37:42;;;;;;;42.92;30.70;;;;;;;;;;5010487;28;20410;-86
2024/01/02 09:40:14;;;;;;;38.53;24.50;;;;;;;;;;5028636;28;20022;-87
2024/01/02 09:42:46;;;;;;;15.98;8.60;;;;;;;;;;5028197;28;20017;-86
2024/01/02 09:45:13;;;;;;;39.55;24.90;;;;;;;;;;5008864;28;20092;-86
2024/01/02 09:47:45;;;;;;;145.82;98.55;;;;;;;;;;5008544;28;20022;-87
2024/01/02 09:50:14;;;;;;;37.20;30.05;;;;;;;;;;5026818;28;20017;-87
2024/01/02 09:52:58;;;;;;;147.65;99.72;;;;;;;;;;5010691;28;20061;-87
2024/01/02 09:55:32;;;;;;;40.67;28.70;;;;;;;;;;5011193;28;20305;-87
2024/01/02 09:57:58;;;;;;;43.60;31.23;;;;;;;;;;5010310;28;20036;-86
2024/01/02 10:00:34;;;;;;;44.88;34.55;;;;;;;;;;5010880;28;20318;-88
2024/01/02 10:03:19;;;;;;;86.88;57.97;;;;;;;;;;5010151;28;20057;-87
2024/01/02 10:05:44;;;;;;;56.78;43.75;;;;;;;;;;5010758;28;20383;-88
2024/01/02 10:08:22;;;;;;;79.18;53.03;;;;;;;;;;5010225;28;20040;-87
2024/01/02 10:11:07;;;;;;;40.63;27.85;;;;;;;;;;5028301;28;20026;-88
2024/01/02 10:13:39;;;;;;;7.82;5.75;;;;;;;;;;5010062;28;20029;-87
2024/01/02 10:16:20;;;;;;;37.60;23.25;;;;;;;;;;5028178;28;20409;-88
2024/01/02 10:19:01;;;;;;;29.58;21.30;;;;;;;;;;5012774;28;20419;-88
2024/01/02 10:21:36;;;;;;;21.50;15.07;;;;;;;;;;5010751;28;20075;-87
2024/01/02 10:24:18;;;;;;;17.17;11.70;;;;;;;;;;5008615;28;20079;-87
2024/01/02 10:26:50;;;;;;;33.30;23.02;;;;;;;;;;4987567;28;20030;-87
2024/01/02 10:29:20;;;;;;;28.02;17.65;;;;;;;;;;5000643;28;20013;-88
2024/01/02 10:31:59;;;;;;;54.78;33.08;;;;;;;;;;5020906;28;20071;-87
2024/01/02 10:34:35;;;;;;;88.68;58.55;;;;;;;;;;5011274;28;20083;-87
2024/01/02 10:37:04;;;;;;;46.33;32.33;;;;;;;;;;5026433;28;20701;-87
2024/01/02 10:39:47;;;;;;;10.23;8.25;;;;;;;;;;5022846;28;20029;-87
2024/01/02 10:42:27;;;;;;;22.73;16.67;;;;;;;;;;5006260;28;20057;-88
2024/01/02 10:44:59;;;;;;;14.45;10.35;;;;;;;;;;4990218;28;20507;-88
2024/01/02 10:47:30;;;;;;;17.42;14.98;;;;;;;;;;5007986;28;20109;-88
2024/01/02 10:49:59;;;;;;;14.30;9.20;;;;;;;;;;5008739;28;20032;-88
2024/01/02 10:52:25;;;;;;;;;;;;;;;;;;5024559;28;20104;-88
2024/01/02 10:55:09;;;;;;;18.75;13.05;;;;;;;;;;5027459;28;19994;-88
2024/01/02 10:58:01;;;;;;;14.07;10.15;;;;;;;;;;5027534;28;20499;-88
2024/01/02 11:00:29;;;;;;;49.70;25.20;;;;;;;;;;5026558;28;20471;-88
2024/01/02 11:03:07;;;;;;;54.33;25.42;;;;;;;;;;5026740;28;20658;-88
2024/01/02 11:05:39;;;;;;;139.50;57.08;;;;;;;;;;5027542;28;20021;-88
2024/01/02 11:08:18;;;;;;;58.47;27.40;;;;;;;;;;5014435;28;20034;-88
2024/01/02 11:10:43;;;;;;;;;;;;;;;;;;5024494;28;20033;-87
2024/01/02 11:13:11;;;;;;;23.33;16.42;;;;;;;;;;5025949;28;19913;-88
2024/01/02 11:15:38;;;;;;;16.73;9.60;;;;;;;;;;5009441;28;20312;-88
2024/01/02 11:18:04;;;;;;;10.65;7.75;;;;;;;;;;5017663;28;20021;-87
2024/01/02 11:20:39;;;;;;;27.35;13.15;;;;;;;;;;5012846;28;20156;-87
2024/01/02 11:23:13;;;;;;;16.67;9.65;;;;;;;;;;5028399;28;20059;-88
2024/01/02 11:25:58;;;;;;;4.60;3.72;;;;;;;;;;5013967;28;20021;-87
2024/01/02 11:28:24;;;;;;;11.77;6.28;;;;;;;;;;5011025;28;20171;-86
2024/01/02 11:30:50;;;;;;;6.05;4.00;;;;;;;;;;5009832;28;20152;-86
2024/01/02 11:33:20;;;;;;;6.60;4.47;;;;;;;;;;5005626;28;20033;-86
2024/01/02 11:36:01;;;;;;;22.63;9.73;;;;;;;;;;5023800;28;20040;-86
2024/01/02 11:38:30;;;;;;;6.20;4.55;;;;;;;;;;5008761;28;20511;-86
2024/01/02 11:40:55;;;;;;;9.60;5.18;;;;;;;;;;5012817;28;20554;-87
2024/01/02 11:43:20;;;;;;;53.40;18.17;;;;;;;;;;5028125;28;20033;-87
2024/01/02 11:45:55;;;;;;;35.03;14.55;;;;;;;;;;5028634;28;20078;-86
2024/01/02 11:48:20;;;;;;;12.55;9.75;;;;;;;;;;5015713;28;20033;-86
2024/01/02 11:50:51;;;;;;;10.00;6.90;;;;;;;;;;5015041;28;20036;-87
2024/01/02 11:53:29;;;;;;;10.00;8.00;;;;;;;;;;5014676;28;20098;-87
2024/01/02 11:56:00;;;;;;;21.60;14.68;;;;;;;;;;5020900;28;20017;-88
2024/01/02 11:58:28;;;;;;;41.33;20.27;;;;;;;;;;5027415;28;20137;-86
2024/01/02 12:01:12;;;;;;;20.63;11.02;;;;;;;;;;5009583;28;20017;-87
2024/01/02 12:03:59;;;;;;;148.35;55.47;;;;;;;;;;5026545;28;20029;-87
2024/01/02 12:06:30;;;;;;;77.95;32.55;;;;;;;;;;5009375;28;20025;-86
2024/01/02 12:09:00;;;;;;;70.60;29.92;;;;;;;;;;5026401;28;20040;-86
2024/01/02 12:11:26;;;;;;;62.05;26.70;;;;;;;;;;5011864;28;20675;-87
2024/01/02 12:14:04;;;;;;;94.53;41.47;;;;;;;;;;5003826;28;20091;-86
2024/01/02 12:16:33;;;;;;;86.40;35.47;;;;;;;;;;5019207;28;20263;-87
2024/01/02 12:18:59;;;;;;;42.47;21.88;;;;;;;;;;5023899;28;20497;-87
2024/01/02 12:21:25;;;;;;;55.58;25.23;;;;;;;;;;5017751;28;20017;-86
2024/01/02 12:23:51;;;;;;;45.97;23.42;;;;;;;;;;5013042;28;20022;-87
2024/01/02 12:26:20;;;;;;;50.95;25.92;;;;;;;;;;5009225;28;20083;-87
2024/01/02 12:28:45;;;;;;;43.58;25.65;;;;;;;;;;5010629;28;20029;-87
2024/01/02 12:31:16;;;;;;;62.45;27.55;;;;;;;;;;5010432;28;20037;-87
2024/01/02 12:33:55;;;;;;;44.75;20.48;;;;;;;;;;5027077;28;20533;-86
2024/01/02 12:36:29;;;;;;;98.50;42.85;;;;;;;;;;5009002;28;20036;-86
2024/01/02 12:39:00;;;;;;;21.73;12.02;;;;;;;;;;5009257;28;20018;-86
2024/01/02 12:41:29;;;;;;;18.58;9.52;;;;;;;;;;5003963;28;20047;-87
2024/01/02 12:43:58;;;;;;;28.60;15.40;;;;;;;;;;5027653;28;20057;-87
2024/01/02 12:46:32;;;;;;;24.95;14.15;;;;;;;;;;5026584;28;20100;-86
2024/01/02 12:49:07;;;;;;;61.10;27.85;;;;;;;;;;5010214;28;20117;-86
2024/01/02 12:51:35;;;;;;;24.08;12.18;;;;;;;;;;5006740;28;20025;-87
2024/01/02 12:54:00;;;;;;;26.80;10.97;;;;;;;;;;5007288;28;20108;-86
2024/01/02 12:56:31;;;;;;;11.02;7.30;;;;;;;;;;5022649;28;20148;-87
2024/01/02 12:59:00;;;;;;;50.30;25.25;;;;;;;;;;5021942;28;20017;-86
2024/01/02 13:01:25;;;;;;;52.85;27.48;;;;;;;;;;5003084;28;20014;-87
2024/01/02 13:03:50;;;;;;;16.42;10.60;;;;;;;;;;5013487;28;20565;-87
2024/01/02 13:06:16;;;;;;;25.23;16.33;;;;;;;;;;5005840;28;20595;-86
2024/01/02 13:08:42;;;;;;;12.65;9.50;;;;;;;;;;4988148;28;20026;-87
2024/01/02 13:11:09;;;;;;;15.75;10.70;;;;;;;;;;5002346;28;20021;-86
2024/01/02 13:13:35;;;;;;;20.95;13.77;;;;;;;;;;5020189;28;20018;-86
2024/01/02 13:16:01;;;;;;;22.42;14.27;;;;;;;;;;4985047;28;20675;-87
2024/01/02 13:18:27;;;;;;;14.18;9.07;;;;;;;;;;5004865;28;20025;-87
2024/01/02 13:20:53;;;;;;;12.38;8.30;;;;;;;;;;5005561;28;20025;-87
2024/01/02 13:23:18;;;;;;;10.45;8.18;;;;;;;;;;5004655;28;20049;-87
2024/01/02 13:25:44;;;;;;;9.60;6.97;;;;;;;;;;5001740;28;20060;-85
2024/01/02 13:28:19;;;;;;;14.05;10.02;;;;;;;;;;5003438;28;20684;-87
2024/01/02 13:30:45;;;;;;;8.60;7.00;;;;;;;;;;5021193;28;20703;-87
2024/01/02 13:33:11;;;;;;;8.85;7.95;;;;;;;;;;5003833;28;20030;-87
2024/01/02 13:35:37;;;;;;;12.52;10.40;;;;;;;;;;5026393;28;20025;-88
2024/01/02 13:38:04;;;;;;;13.63;9.90;;;;;;;;;;5025489;28;20044;-86
2024/01/02 13:40:30;;;;;;;11.30;8.82;;;;;;;;;;5010103;28;20059;-87
2024/01/02 13:42:56;;;;;;;11.48;8.18;;;;;;;;;;5022779;28;20045;-86
2024/01/02 13:45:25;;;;;;;13.98;9.40;;;;;;;;;;5022886;28;20129;-86
2024/01/02 13:47:50;;;;;;;12.05;8.75;;;;;;;;;;4996780;28;20279;-86
2024/01/02 13:50:25;;;;;;;13.82;8.57;;;;;;;;;;5004347;28;20136;-86
2024/01/02 13:52:59;;;;;;;16.35;11.93;;;;;;;;;;5015781;28;20036;-86
2024/01/02 13:55:28;;;;;;;14.95;10.10;;;;;;;;;;5021313;28;20438;-86
2024/01/02 13:57:54;;;;;;;16.25;11.68;;;;;;;;;;5001761;28;20527;-85
2024/01/02 14:00:22;;;;;;;15.10;9.73;;;;;;;;;;5022001;28;20026;-85
2024/01/02 14:02:52;;;;;;;9.70;7.68;;;;;;;;;;5003303;28;20022;-85
2024/01/02 14:05:22;;;;;;;12.27;8.70;;;;;;;;;;5002342;28;20022;-86
2024/01/02 14:07:49;;;;;;;10.88;8.85;;;;;;;;;;5023678;28;20048;-86
2024/01/02 14:10:16;;;;;;;24.08;17.23;;;;;;;;;;5006702;28;20048;-85
2024/01/02 14:12:47;;;;;;;32.28;21.73;;;;;;;;;;5016058;28;20475;-86
2024/01/02 14:15:18;;;;;;;94.82;46.10;;;;;;;;;;5008947;28;20111;-86
2024/01/02 14:17:46;;;;;;;21.65;15.07;;;;;;;;;;5020490;28;20025;-86